logo
App data

Wild Island Quest

In an endless air ocean of an alien world, small lonesome plots of land float above the abyss. But sometimes approach each other, and lands which have never met before, reveal their secrets.
Store | Hub | SteamDB
Developer: NLB project Publisher: NLB project
Genre: Adventure, Indie
Languages: English, Russian
Tags: Indie (31), Adventure (29), Visual Novel (17), Choices Matter (16), Interactive Fiction (15), Multiple Endings (14), Choose Your Own Adventure (13)
Category: Single-player, Steam Achievements, Steam Trading Cards, Steam Cloud
Release date: Sep 4, 2015
Price: $0.49 75%
Old userscore: 48% Owners: 50,000 .. 100,000
Followers: 268
Peak concurrent players yesterday: 1
Playtime total: 06:43 (average) 06:52 (median)

Steam Spy is still in beta, so expect major bugs.

Owners data:

Access restricted.

This feature is only available to users with special access rights. Sorry.

If you want to proceed, you need to register or log in first and then back Steam Spy on Patreon. Look for Indie or Pro pledge.

Don't forget to use the same email as on Steam Spy!

Audience in 2 weeks:

Access restricted.

This feature is only available to users with special access rights. Sorry.

If you want to proceed, you need to register or log in first and then back Steam Spy on Patreon. Look for Indie or Pro pledge.

Don't forget to use the same email as on Steam Spy!

Peak daily concurrent players:

CCU data courtesy of SteamDB. Used with permission.

Hourly concurrent players:

Followers over time

Access restricted.

This feature is only available to users with special access rights. Sorry.

If you want to proceed, you need to register or log in first and then back Steam Spy on Patreon. Look for Indie or Pro pledge.

Don't forget to use the same email as on Steam Spy!

Views for top 50 videos on YouTube for this game:

Games similar to this one:

# Game Release date
Price
Score rank
(Userscore / Metascore)
Owners
Players
Playtime (Median)
1 ReignMaker Apr 16, 2014 $14.99N/A (N/A)50,000 .. 100,0000%00:00 (00:00)
2 Captain Forever Remix Jun 3, 2016 $9.99N/A (N/A)50,000 .. 100,0000%00:00 (00:00)
3 Autocraft Sep 20, 2017 $2.49N/A (N/A)20,000 .. 50,0000%00:00 (00:00)
4 Frederic: Resurrection of Music May 16, 2014 $0.5N/A (N/A)100,000 .. 200,0000%00:00 (00:00)
5 Volt Apr 14, 2014 $0.99N/A (N/A)100,000 .. 200,0000%00:00 (00:00)
6 Frederic: Evil Strikes Back May 23, 2014 $0.79N/A (N/A)50,000 .. 100,0000%00:00 (00:00)
7 Three Dead Zed Jul 7, 2014 $5.99N/A (N/A)50,000 .. 100,0000%00:00 (00:00)
8 Rhythm Destruction Jun 16, 2014 $4.99N/A (N/A)50,000 .. 100,0000%00:00 (00:00)
9 Starship Corporation May 3, 2018 $19.99N/A (N/A)0 .. 20,0000%00:00 (00:00)
10 Boson X Sep 15, 2014 $2.99N/A (N/A)50,000 .. 100,0000%00:00 (00:00)
11 Uriel's Chasm Sep 12, 2014 $4.99N/A (N/A)200,000 .. 500,0000%00:00 (00:00)
12 TRISTOY Jan 15, 2015 $1.39N/A (N/A/49%)20,000 .. 50,0000%00:00 (00:00)
13 Cosmochoria Apr 27, 2015 $9.99N/A (N/A)20,000 .. 50,0000%00:00 (00:00)
14 Concursion Jun 6, 2014 $0.99N/A (N/A/66%)0 .. 20,0000%00:00 (00:00)
15 Stranded May 20, 2014 $0.59N/A (N/A)20,000 .. 50,0000%00:00 (00:00)
16 Fancy Skulls Jun 16, 2014 $3.05N/A (N/A)20,000 .. 50,0000%00:00 (00:00)
17 Dreaming Sarah Mar 12, 2015 $1.19N/A (N/A)0 .. 20,0000%00:00 (00:00)
18 Starship Annihilator Sep 2, 2016 $0.49N/A (N/A)20,000 .. 50,0000%00:00 (00:00)
19 Karma Miwa Aug 12, 2016 $0.99N/A (N/A)20,000 .. 50,0000%00:00 (00:00)
20 Deisim Dec 19, 2016 $7.99N/A (N/A)0 .. 20,0000%00:00 (00:00)
21 Super Duper Party Pooper Jun 6, 2016 $0.49N/A (N/A/40%)20,000 .. 50,0000%00:00 (00:00)
22 Please, Don't Touch Anything 3D Dec 7, 2016 $4.49N/A (N/A)20,000 .. 50,0000%00:00 (00:00)
23 DashBored Jun 13, 2016 $4.99N/A (N/A)20,000 .. 50,0000%00:00 (00:00)
24 mr.President Prologue Episode Sep 20, 2016 $0.49N/A (N/A)20,000 .. 50,0000%00:00 (00:00)
25 Robot Legions Reborn Jul 19, 2016 $1.49N/A (N/A)20,000 .. 50,0000%00:00 (00:00)
26 Filthy Lucre Dec 11, 2016 $12.99N/A (N/A)0 .. 20,0000%00:00 (00:00)
27 Pixel Cup Soccer 17 Aug 4, 2016 $9.99N/A (N/A)0 .. 20,0000%00:00 (00:00)
28 BoomTown! Deluxe Oct 14, 2016 $1.99N/A (N/A)20,000 .. 50,0000%00:00 (00:00)
29 Dinosaur Forest May 17, 2017 $0.49N/A (N/A)50,000 .. 100,0000%00:00 (00:00)
30 Son of a Witch May 16, 2018 $7.49N/A (N/A)0 .. 20,0000%00:00 (00:00)
31 Joana's Life Sep 1, 2016 $2.99N/A (N/A)0 .. 20,0000%00:00 (00:00)
32 Pixel Gladiator Sep 8, 2017 $0.99N/A (N/A)20,000 .. 50,0000%00:00 (00:00)
33 It Comes Around - A Kinetic Novel Sep 29, 2016 $2.99N/A (N/A)20,000 .. 50,0000%00:00 (00:00)
34 Snake Pass Mar 28, 2017 $4.99N/A (N/A/71%)200,000 .. 500,0000%00:00 (00:00)
35 Curses 'N Chaos Aug 18, 2015 $7.49N/A (N/A)20,000 .. 50,0000%00:00 (00:00)
36 Ninja Pizza Girl Sep 30, 2015 $0.69N/A (N/A/82%)50,000 .. 100,0000%00:00 (00:00)
37 Back to Bed Aug 6, 2014 $0.59N/A (N/A)500,000 .. 1,000,0000%00:00 (00:00)
38 iO Dec 5, 2014 $2.99N/A (N/A)0 .. 20,0000%00:00 (00:00)
39 NEON STRUCT May 20, 2015 $1.79N/A (N/A/62%)0 .. 20,0000%00:00 (00:00)
40 Horizon Shift May 29, 2015 $0.99N/A (N/A)100,000 .. 200,0000%00:00 (00:00)
41 OTTTD Aug 6, 2014 $1.99N/A (N/A)20,000 .. 50,0000%00:00 (00:00)
42 Pix the Cat Jan 29, 2015 $9.99N/A (N/A/77%)20,000 .. 50,0000%00:00 (00:00)
43 The Masterplan Jun 4, 2015 $19.99N/A (N/A/68%)100,000 .. 200,0000%00:00 (00:00)
44 Tulpa Jan 29, 2015 $2.99N/A (N/A)0 .. 20,0000%00:00 (00:00)
45 A City Sleeps Oct 16, 2014 $9.99N/A (N/A)0 .. 20,0000%00:00 (00:00)
46 Phoenix Force Nov 13, 2014 $0.49N/A (N/A)50,000 .. 100,0000%00:00 (00:00)
47 Velocibox Sep 8, 2014 $4.99N/A (N/A)20,000 .. 50,0000%00:00 (00:00)
48 Marvin's Mittens Dec 17, 2014 $5.99N/A (N/A)0 .. 20,0000%00:00 (00:00)
49 Squishy the Suicidal Pig Oct 23, 2014 $0.89N/A (N/A)100,000 .. 200,0000%00:00 (00:00)
50 A Druid's Duel Feb 25, 2015 $7.99N/A (N/A/70%)0 .. 20,0000%00:00 (00:00)
51 Great Permutator Sep 15, 2014 $0.76N/A (N/A)0 .. 20,0000%00:00 (00:00)
52 Unmechanical Aug 8, 2012 $9.99N/A (N/A/74%)100,000 .. 200,0000%00:00 (00:00)
53 Critter Crunch Sep 11, 2012 $1.39N/A (N/A)20,000 .. 50,0000%00:00 (00:00)
54 Sugar Cube: Bittersweet Factory Nov 7, 2012 $1.74N/A (N/A)20,000 .. 50,0000%00:00 (00:00)
55 BIT.TRIP BEAT Nov 2, 2010 $9.99N/A (N/A)200,000 .. 500,0000%00:00 (00:00)
56 Party of Sin Dec 13, 2012 $3.29N/A (N/A)20,000 .. 50,0000%00:00 (00:00)
57 Super Splatters Jun 26, 2013 N/AN/A (N/A/73%)50,000 .. 100,0000%00:00 (00:00)
58 Home Jun 1, 2012 $1.99N/A (N/A/69%)200,000 .. 500,0000%00:00 (00:00)
59 SOL: Exodus Jan 25, 2012 $7.99N/A (N/A/57%)20,000 .. 50,0000%00:00 (00:00)
60 Cargo Commander Nov 1, 2012 $1.99N/A (N/A)100,000 .. 200,0000%00:00 (00:00)
61 Titan Attacks! Feb 3, 2012 $4.99N/A (N/A)50,000 .. 100,0000%00:00 (00:00)
62 Puddle Nov 9, 2012 $7.99N/A (N/A)100,000 .. 200,0000%00:00 (00:00)
63 BIT.TRIP CORE Oct 2, 2012 $9.99N/A (N/A)20,000 .. 50,0000%00:00 (00:00)
64 Papo & Yo Apr 18, 2013 $14.99N/A (N/A/70%)200,000 .. 500,0000%00:00 (00:00)
65 BIT.TRIP VOID Dec 19, 2012 $9.99N/A (N/A)20,000 .. 50,0000%00:00 (00:00)
66 Dream Jul 31, 2015 $1.79N/A (N/A/59%)50,000 .. 100,0000%00:00 (00:00)
67 Tales From Space: Mutant Blobs Attack Aug 15, 2012 $2.99N/A (N/A/83%)100,000 .. 200,0000%00:00 (00:00)
68 Bad Hotel Oct 16, 2013 $4.99N/A (N/A)50,000 .. 100,0000%00:00 (00:00)
69 GORN Jul 18, 2019 $9.99N/A (N/A/85%)200,000 .. 500,0000%00:00 (00:00)
70 Wayout Nov 4, 2016 $0.49N/A (N/A)50,000 .. 100,0000%00:00 (00:00)
71 Guns of Icarus Alliance Mar 31, 2017 $0.74N/A (N/A)0 .. 20,0000%00:00 (00:00)
72 99Vidas Dec 22, 2016 $1.29N/A (N/A/69%)20,000 .. 50,0000%00:00 (00:00)
73 The Archotek Project Apr 28, 2017 $0.99N/A (N/A)200,000 .. 500,0000%00:00 (00:00)
74 Witch It Oct 22, 2020 $14.99N/A (N/A)200,000 .. 500,0002.38%00:38 (00:12)
75 Introvert Quest Mar 15, 2017 $2.49N/A (N/A)20,000 .. 50,0000%00:00 (00:00)
76 Distant Space Dec 20, 2016 $0.49N/A (N/A)50,000 .. 100,0000%00:00 (00:00)
77 Child Phobia: Nightcoming Fears Dec 20, 2016 $1.99N/A (N/A)20,000 .. 50,0000%00:00 (00:00)
78 Mistwood Heroes Dec 30, 2016 $0.49N/A (N/A)20,000 .. 50,0000%00:00 (00:00)
79 Three Kingdoms The Last Warlord May 26, 2017 $8.49N/A (N/A)20,000 .. 50,00020%00:01 (00:00)
80 Three Fourths Home: Extended Edition Mar 20, 2015 $1.24N/A (N/A/77%)20,000 .. 50,0000%00:00 (00:00)
81 Chronicles of a Dark Lord: Episode 1 Tides of Fate Complete Dec 19, 2014 N/AN/A (N/A)50,000 .. 100,0000%00:00 (00:00)
82 Rats - Time is running out! Aug 19, 2015 $1.74N/A (N/A)20,000 .. 50,0000%00:00 (00:00)
83 Bermuda Mar 17, 2015 $2.99N/A (N/A)50,000 .. 100,0000%00:00 (00:00)
84 Starship Traveller Mar 11, 2015 $1.49N/A (N/A)0 .. 20,0000%00:00 (00:00)
85 TIMEframe Jul 7, 2015 $0.95N/A (N/A)50,000 .. 100,0000%00:00 (00:00)
86 Scribble Space Jun 1, 2015 $1.99N/A (N/A)20,000 .. 50,0000%00:00 (00:00)
87 Tomb of Tyrants Jun 25, 2015 $7.99N/A (N/A)20,000 .. 50,0000%00:00 (00:00)
88 Reflections Jun 26, 2015 $9.99N/A (N/A)0 .. 20,0000%00:00 (00:00)
89 Glorkian Warrior: The Trials Of Glork Mar 24, 2015 $1.99N/A (N/A)20,000 .. 50,0000%00:00 (00:00)
90 Porcunipine May 21, 2015 $0.99N/A (N/A)20,000 .. 50,0000%00:00 (00:00)
91 Countless Rooms of Death Feb 20, 2014 $0.99N/A (N/A)20,000 .. 50,0000%00:00 (00:00)
92 An Octave Higher Mar 27, 2015 $11.99N/A (N/A)0 .. 20,0000%00:00 (00:00)
93 stratO Jun 1, 2015 $4.99N/A (N/A)0 .. 20,0000%00:00 (00:00)
94 Star Horizon May 15, 2020 $9.99N/A (N/A)20,000 .. 50,0000%00:00 (00:00)
95 It came from space and ate our brains Mar 19, 2015 $8.99N/A (N/A)200,000 .. 500,0000%00:00 (00:00)
96 Miner Warfare Apr 6, 2012 $2.99N/A (N/A)0 .. 20,0000%00:00 (00:00)
97 Transcendence Jul 24, 2015 $6.74N/A (N/A)0 .. 20,0000%00:00 (00:00)
98 Home is Where One Starts... May 12, 2015 $0.5N/A (N/A)20,000 .. 50,0000%00:00 (00:00)
99 Polyball Dec 1, 2017 $14.99N/A (N/A)100,000 .. 200,0000.71%00:01 (00:00)
100 Beyond Eyes Aug 11, 2015 $2.99N/A (N/A/60%)100,000 .. 200,0000%00:00 (00:00)
101 Cosmophony Jul 9, 2015 $4.99N/A (N/A)0 .. 20,0000%00:00 (00:00)
102 Inside My Radio May 11, 2015 $14.99N/A (N/A/68%)20,000 .. 50,0000%00:00 (00:00)
103 Shoot 1UP Sep 23, 2015 $1.19N/A (N/A)20,000 .. 50,0000%00:00 (00:00)
104 Gryphon Knight Epic Aug 20, 2015 $12.99N/A (N/A/55%)20,000 .. 50,0000%00:00 (00:00)
105 Impossiball Aug 8, 2017 $0.59N/A (N/A)0 .. 20,0000%00:00 (00:00)
106 Hare In The Hat Apr 1, 2015 $0.79N/A (N/A)20,000 .. 50,0000%00:00 (00:00)
107 Pizza Express Jun 25, 2015 $6.99N/A (N/A)20,000 .. 50,0000%00:00 (00:00)
108 Spellsworn Mar 13, 2018 FreeN/A (N/A)100,000 .. 200,0000%00:00 (00:00)
109 Football, Tactics & Glory Jun 1, 2018 $24.99N/A (N/A)50,000 .. 100,0000%00:00 (00:00)
110 Luna Sky Oct 2, 2015 $12.99N/A (N/A)50,000 .. 100,0000%00:00 (00:00)
111 The Adventures of Mr. Bobley Jun 30, 2015 $0.99N/A (N/A)100,000 .. 200,0000%00:00 (00:00)
112 Interstellar Rift Sep 24, 2020 $19.99N/A (N/A)20,000 .. 50,00025%00:08 (00:02)
113 Monument Jun 5, 2015 $0.49N/A (N/A)20,000 .. 50,0000%00:00 (00:00)
114 Godus At some point $14.99N/A (N/A)50,000 .. 100,0000%00:00 (00:00)
115 Omegalodon Mar 9, 2012 $9.99N/A (N/A)20,000 .. 50,0000%00:00 (00:00)
116 Wake At some point $4.99N/A (N/A)0 .. 20,0000%00:00 (00:00)
117 Escape Goat Jun 14, 2012 $0.49N/A (N/A)50,000 .. 100,0000%00:00 (00:00)
118 Zack Zero Apr 29, 2013 $2.99N/A (N/A)50,000 .. 100,0000%00:00 (00:00)
119 Solar Flux Oct 24, 2013 $9.99N/A (N/A)100,000 .. 200,0000%00:00 (00:00)
120 Element4l May 24, 2013 $8.99N/A (N/A/77%)50,000 .. 100,0000%00:00 (00:00)
121 Maia Nov 23, 2018 $24.99N/A (N/A)50,000 .. 100,0000%00:00 (00:00)
122 Intake Nov 5, 2013 $9.99N/A (N/A)20,000 .. 50,0000%00:00 (00:00)
123 FOTONICA Nov 6, 2014 $1.49N/A (N/A/71%)50,000 .. 100,0000%00:00 (00:00)
124 Super Puzzle Platformer Deluxe May 24, 2013 $7.99N/A (N/A)20,000 .. 50,0000%00:00 (00:00)
125 Gentlemen! Nov 5, 2013 $1.24N/A (N/A)20,000 .. 50,0000%00:00 (00:00)
126 Poöf Nov 8, 2013 $6.99N/A (N/A)20,000 .. 50,0000%00:00 (00:00)
127 Escape Goat 2 Mar 24, 2014 $1.99N/A (N/A/76%)20,000 .. 50,0000%00:00 (00:00)
128 The Novelist Dec 10, 2013 $0.99N/A (N/A/66%)50,000 .. 100,0000%00:00 (00:00)
129 Survivor Squad Nov 8, 2013 $0.59N/A (N/A)100,000 .. 200,0000%00:00 (00:00)
130 Knytt Underground Oct 25, 2013 $6.99N/A (N/A)50,000 .. 100,0000%00:00 (00:00)
131 Dragon's Wake Dec 10, 2015 $3.99N/A (N/A)0 .. 20,0000%00:00 (00:00)
132 Western Press Apr 21, 2016 $4.99N/A (N/A)0 .. 20,0000%00:00 (00:00)
133 Kitchen Simulator 2015 Sep 4, 2015 $0.69N/A (N/A)50,000 .. 100,0000%00:00 (00:00)
134 Action Alien Jun 26, 2015 $1.79N/A (N/A)50,000 .. 100,0000%00:00 (00:00)
135 Press X to Not Die Oct 6, 2017 $0.74N/A (N/A)100,000 .. 200,0000%00:00 (00:00)
136 8Bit Fiesta - Party Game Sep 30, 2016 FreeN/A (N/A)0 .. 20,0000%00:00 (00:00)
137 Jet Set Knights Jan 1, 2016 $3.99N/A (N/A)20,000 .. 50,0000%00:00 (00:00)
138 Dead In Bermuda Aug 27, 2015 $3.74N/A (N/A)20,000 .. 50,0000%00:00 (00:00)
139 1,000 Heads Among the Trees Dec 11, 2015 $4.99N/A (N/A)100,000 .. 200,0000%00:00 (00:00)
140 Aviary Attorney Dec 21, 2015 $14.99N/A (N/A/77%)50,000 .. 100,0000%00:00 (00:00)
141 The Purring Quest Nov 12, 2015 $1.09N/A (N/A)50,000 .. 100,0000%00:00 (00:00)
142 none Nov 4, 2015 N/AN/A (N/A)20,000 .. 50,0000%00:00 (00:00)
143 Perraw - FPS Clone War Alpha Jan 29, 2016 $0.49N/A (N/A)0 .. 20,0000%00:00 (00:00)
144 Redemption: Eternal Quest Aug 28, 2015 $1.99N/A (N/A)100,000 .. 200,0000%00:00 (00:00)
145 Godus Wars Feb 3, 2016 $14.99N/A (N/A)50,000 .. 100,0000%00:00 (00:00)
146 Blaster Shooter GunGuy! Aug 10, 2015 $1.99N/A (N/A)50,000 .. 100,0000%00:00 (00:00)
147 Bell Ringer Mar 6, 2016 $6.99N/A (N/A)50,000 .. 100,0000%00:00 (00:00)
148 Montague's Mount Nov 19, 2013 $1.99N/A (N/A/39%)20,000 .. 50,0000%00:00 (00:00)
149 Labyrinthine Dreams May 26, 2015 $1.99N/A (N/A)20,000 .. 50,0000%00:00 (00:00)
150 Ballpoint Universe - Infinite Dec 17, 2013 $3.99N/A (N/A)50,000 .. 100,0000%00:00 (00:00)
151 Pulstar Jun 11, 2014 $1.99N/A (N/A)20,000 .. 50,0000%00:00 (00:00)
152 STARWHAL Sep 29, 2014 $11.99N/A (N/A)0 .. 20,0000%00:00 (00:00)
153 Imagine Earth Jan 20, 2021 $12.99N/A (N/A)20,000 .. 50,0000%00:00 (00:00)
154 Full Bore May 6, 2014 $3.74N/A (N/A/72%)20,000 .. 50,0000%00:00 (00:00)
155 T.E.C. 3001 Apr 10, 2014 N/AN/A (N/A)20,000 .. 50,0000%00:00 (00:00)
156 Imagine Me Mar 14, 2014 $2.99N/A (N/A)50,000 .. 100,0000%00:00 (00:00)
157 Munin Jun 10, 2014 $0.49N/A (N/A/68%)200,000 .. 500,0000%00:00 (00:00)
158 Montas Mar 24, 2014 $9.99N/A (N/A)20,000 .. 50,0000%00:00 (00:00)
159 4PM Jul 9, 2014 $2.99N/A (N/A/41%)0 .. 20,0000%00:00 (00:00)
160 Jones On Fire Mar 14, 2013 $1.49N/A (N/A)50,000 .. 100,0000%00:00 (00:00)
161 Rabbit Hole 3D: Steam Edition Apr 25, 2014 $2.99N/A (N/A)50,000 .. 100,0000%00:00 (00:00)
162 10 Second Ninja Mar 5, 2014 $1.99N/A (N/A/72%)50,000 .. 100,0000%00:00 (00:00)
163 Kromaia Oct 23, 2014 $19.99N/A (N/A/68%)0 .. 20,0000%00:00 (00:00)
164 Dwelvers Sep 10, 2014 $14.99N/A (N/A)0 .. 20,0000%00:00 (00:00)
165 OPUS: The Day We Found Earth Apr 21, 2016 $8.99N/A (N/A)50,000 .. 100,0000%00:00 (00:00)
166 Doodle Kingdom Jun 9, 2016 $4.04N/A (N/A)50,000 .. 100,0000%00:00 (00:00)
167 NORTH Apr 27, 2016 $0.49N/A (N/A)200,000 .. 500,0000%00:00 (00:00)
168 Rencounter Nov 4, 2016 $0.59N/A (N/A)20,000 .. 50,0000%00:00 (00:00)
169 New Retro Arcade: Neon Nov 19, 2019 $13.99N/A (N/A)0 .. 20,0000%00:00 (00:00)
170 10 Second Ninja X Jul 19, 2016 $0.99N/A (N/A)200,000 .. 500,0000%00:00 (00:00)
171 上帝之城 I:监狱帝国 [City of God I - Prison Empire] Jul 9, 2018 $18.99N/A (N/A)50,000 .. 100,0000%00:00 (00:00)
172 Mindless Running Feb 22, 2016 $0.49N/A (N/A)20,000 .. 50,0000%00:00 (00:00)
173 Scanner Sombre Apr 26, 2017 $1.49N/A (N/A/67%)100,000 .. 200,0000%00:00 (00:00)
174 Mimpi Dreams Mar 22, 2016 FreeN/A (N/A)0 .. 20,0000%00:00 (00:00)
175 ORCS May 20, 2016 $0.49N/A (N/A)20,000 .. 50,0000%00:00 (00:00)
176 Cube Land Arena Mar 29, 2016 $0.49N/A (N/A)50,000 .. 100,0000%00:00 (00:00)
177 Reflection of Mine Feb 24, 2017 $1.19N/A (N/A)0 .. 20,0000%00:00 (00:00)
178 Hero Quest: Tower Conflict Apr 13, 2016 $0.49N/A (N/A)200,000 .. 500,0000%00:00 (00:00)
179 Star Drifter Jun 1, 2016 $0.49N/A (N/A)50,000 .. 100,0000%00:00 (00:00)
180 CrazyCars3D Mar 28, 2016 $2.99N/A (N/A)50,000 .. 100,0000%00:00 (00:00)
181 Call Of The Mighty Warriors Jun 2, 2016 $0.49N/A (N/A)0 .. 20,0000%00:00 (00:00)

Tags over time:

Access restricted.

This feature is only available to users with special access rights. Sorry.

If you want to proceed, you need to register or log in first and then back Steam Spy on Patreon. Look for Indie or Pro pledge.

Don't forget to use the same email as on Steam Spy!

Owners of this game also own:

Access restricted.

This feature is only available to users with special access rights. Sorry.

If you want to proceed, you need to register or log in first and then back Steam Spy on Patreon. Look for Indie or Pro pledge.

Don't forget to use the same email as on Steam Spy!

Playtime distribution:

Access restricted.

This feature is only available to users with special access rights. Sorry.

If you want to proceed, you need to register or log in first and then back Steam Spy on Patreon. Look for Indie or Pro pledge.

Don't forget to use the same email as on Steam Spy!

Playtime (2 weeks):

Access restricted.

This feature is only available to users with special access rights. Sorry.

If you want to proceed, you need to register or log in first and then back Steam Spy on Patreon. Look for Indie or Pro pledge.

Don't forget to use the same email as on Steam Spy!

User reviews:

Login required.

Please register or log in to see this information.